Terminal Aerodrome Forecast
Issued by NWS Blacksburg, VA

Current Version | Previous Version | Text Only | Print | Product List | Glossary Off
Versions: 1 2 3 4 5 6 7 8 9 10 11 12 13 14 15 16 17 18 19

000
FTUS41 KRNK 221720
TAFBLF
TAF
KBLF 221720Z 2218/2318 31008KT 5SM -RADZ OVC003
     FM230100 32006KT 6SM BR OVC004
     FM231300 31006KT P6SM BKN008
     FM231600 31010KT P6SM BKN025=

USA.gov is the U.S. government's official web portal to all federal, state and local government web resources and services.